PST,Max TemperatureF,Mean TemperatureF,Min TemperatureF,Max Dew PointF,MeanDew PointF,Min DewpointF,Max Humidity, Mean Humidity, Min Humidity, Max Sea Level PressureIn, Mean Sea Level PressureIn, Min Sea Level PressureIn, Max VisibilityMiles, Mean VisibilityMiles, Min VisibilityMiles, Max Wind SpeedMPH, Mean Wind SpeedMPH, Max Gust SpeedMPH,PrecipitationIn, CloudCover, Events, WindDirDegrees
2011-11-1,49,38,26,30,15,-13,85,47,9,30.34,30.19,30.03,10,10,9,10,5,17,0.00,1,,87
2011-11-2,58,39,19,27,13,3,56,37,18,30.35,30.23,30.01,10,10,10,21,3,28,0.00,0,,198
2011-11-3,53,41,28,39,20,4,85,51,16,30.05,29.73,29.56,10,6,0,31,12,47,0.34,3,Fog-Snow,193
2011-11-4,36,25,14,25,20,13,85,66,47,29.87,29.74,29.61,10,6,0,14,2,21,0.06,6,Snow,154
2011-11-5,33,23,13,27,20,9,85,67,49,29.93,29.85,29.80,10,6,0,20,8,25,0.11,6,Fog-Snow,190
2011-11-6,38,30,21,43,23,17,84,66,48,30.01,29.86,29.79,10,7,1,14,4,17,0.08,7,Snow,192
2011-11-7,41,30,19,27,20,13,85,62,38,30.27,30.14,30.02,10,9,2,8,2,12,0.00,2,,158
2011-11-8,48,30,12,20,12,-6,80,46,12,30.40,30.29,30.19,10,9,6,8,2,13,0.00,0,,162
2011-11-9,51,34,17,28,20,12,85,59,32,30.43,30.33,30.26,10,10,8,8,2,9,0.00,0,,179
2011-11-10,58,39,20,21,16,-1,84,47,10,30.35,30.19,30.01,10,9,7,18,3,24,0.00,0,,199
2011-11-11,52,38,24,33,27,16,79,57,35,30.04,29.85,29.71,10,10,7,22,4,30,T,6,,189
2011-11-12,50,41,31,34,30,27,85,67,49,29.93,29.83,29.75,10,10,10,12,2,30,0.00,4,,188
2011-11-13,56,44,31,33,27,16,85,54,22,30.01,29.96,29.89,10,10,10,14,1,28,T,4,,105
2011-11-14,53,41,28,32,24,20,75,52,28,30.09,29.98,29.88,10,10,10,17,4,21,0.00,1,,199
2011-11-15,57,42,27,27,24,19,78,53,27,30.20,30.13,30.05,10,10,8,13,2,25,0.00,0,,168
2011-11-16,58,43,27,31,26,19,85,58,30,30.27,30.21,30.14,10,10,6,10,2,14,0.00,0,,172
2011-11-17,52,40,27,29,24,16,69,54,38,30.22,30.07,29.84,10,10,8,28,12,46,0.00,2,,187
2011-11-18,43,38,32,27,24,19,69,55,41,29.90,29.68,29.57,10,5,0,36,22,61,T,6,Rain-Snow,202
2011-11-19,40,34,28,25,19,15,69,55,40,29.80,29.75,29.68,10,9,1,23,10,35,T,3,Snow,191
2011-11-20,42,32,22,28,24,17,81,60,38,29.96,29.76,29.63,10,6,1,21,3,40,0.02,6,Snow,195
2011-11-21,46,33,19,26,19,15,84,59,33,30.24,30.11,29.96,10,10,10,20,6,26,0.00,0,,196
2011-11-22,53,43,32,16,9,0,53,34,14,30.23,30.13,29.97,10,10,10,21,9,28,0.00,0,,191
2011-11-23,57,50,43,11,7,2,25,18,11,29.94,29.80,29.69,10,10,10,31,20,45,0.00,0,,191
2011-11-24,45,39,33,32,25,8,76,49,22,30.17,29.97,29.72,10,10,10,21,7,28,0.00,4,,192
2011-11-25,55,41,26,28,20,6,85,50,15,30.47,30.31,30.14,10,10,8,15,3,20,0.00,1,,158
2011-11-26,57,40,22,31,23,17,84,60,35,30.58,30.50,30.43,10,9,7,7,1,10,0.00,0,,140
2011-11-27,63,43,23,32,19,11,81,48,14,30.53,30.42,30.30,10,9,4,18,5,25,0.00,0,,186
2011-11-28,61,45,28,20,12,1,58,34,9,30.35,30.29,30.20,10,10,10,23,4,32,0.00,0,,195
2011-11-29,61,41,21,28,19,12,84,53,22,30.38,30.28,30.19,10,10,8,9,2,14,0.00,0,,176
2011-11-30,49,39,28,23,13,-7,53,32,10,30.21,30.16,30.07,10,10,9,26,11,41,T,2,Snow,17